Time;durP1;ratioP1;P1;durP2;ratioP2;P2;SDS_P1;SDS_P2;PMS_P1;PMS_P2;Temp;Humidity;BMP_temperature;BMP_pressure;BME280_temperature;BME280_humidity;BME280_pressure;Samples;Min_cycle;Max_cycle;Signal;HPM_P1;HPM_P2
2021/01/14 00:00:00;;;;;;;11.00;3.20;;;3.50;99.90;;;;;;5031711;28;20418;-74
2021/01/14 00:02:26;;;;;;;8.87;3.53;;;3.50;99.90;;;;;;5030734;28;20897;-73
2021/01/14 00:04:53;;;;;;;7.60;2.53;;;3.60;99.90;;;;;;5030986;28;20267;-72
2021/01/14 00:07:19;;;;;;;4.30;1.90;;;3.50;99.90;;;;;;5031097;28;20461;-72
2021/01/14 00:09:45;;;;;;;4.73;2.40;;;3.50;99.90;;;;;;5014872;28;20451;-72
2021/01/14 00:12:10;;;;;;;4.87;2.37;;;3.60;99.90;;;;;;5031168;28;20495;-74
2021/01/14 00:14:36;;;;;;;4.83;2.20;;;3.60;99.90;;;;;;5014626;28;20183;-73
2021/01/14 00:17:02;;;;;;;5.33;2.23;;;3.40;99.90;;;;;;5031428;28;20531;-73
2021/01/14 00:19:27;;;;;;;5.30;1.80;;;3.40;99.90;;;;;;5031438;28;20282;-73
2021/01/14 00:21:53;;;;;;;7.27;1.47;;;3.30;99.90;;;;;;5031476;28;20223;-74
2021/01/14 00:24:19;;;;;;;6.27;2.30;;;3.30;99.90;;;;;;5030783;28;20175;-74
2021/01/14 00:26:45;;;;;;;3.57;1.90;;;3.30;99.90;;;;;;5033767;28;20217;-74
2021/01/14 00:29:11;;;;;;;6.30;2.20;;;3.30;99.90;;;;;;5033377;28;20791;-72
2021/01/14 00:31:37;;;;;;;6.87;1.97;;;3.40;99.90;;;;;;5033748;28;20492;-73
2021/01/14 00:34:03;;;;;;;4.40;1.93;;;3.30;99.90;;;;;;5034527;28;20420;-73
2021/01/14 00:39:23;;;;;;;3.70;1.97;;;3.20;99.90;;;;;;5036542;28;20424;-73
2021/01/14 00:41:49;;;;;;;4.23;2.07;;;3.20;99.90;;;;;;5034473;28;20829;-73
2021/01/14 00:44:14;;;;;;;4.63;1.77;;;3.10;99.90;;;;;;5037989;28;20479;-73
2021/01/14 00:46:40;;;;;;;5.13;1.70;;;3.10;99.90;;;;;;5031395;28;20222;-73
2021/01/14 00:49:06;;;;;;;3.10;1.67;;;3.10;99.90;;;;;;5032658;28;20674;-73
2021/01/14 00:51:35;;;;;;;3.53;1.37;;;3.10;99.90;;;;;;5032519;28;20182;-72
2021/01/14 00:54:01;;;;;;;3.70;1.50;;;3.10;99.90;;;;;;5032658;28;20398;-73
2021/01/14 00:56:37;;;;;;;7.33;1.90;;;3.10;99.90;;;;;;5032062;28;20469;-73
2021/01/14 00:59:03;;;;;;;5.13;1.93;;;3.10;99.90;;;;;;5032852;28;20409;-73
2021/01/14 01:01:30;;;;;;;5.70;1.60;;;3.00;99.90;;;;;;5032130;28;20764;-73
2021/01/14 01:03:56;;;;;;;2.47;1.50;;;3.00;99.90;;;;;;5033096;28;20409;-72
2021/01/14 01:06:23;;;;;;;2.90;1.63;;;3.00;99.90;;;;;;5035366;28;20449;-73
2021/01/14 01:08:49;;;;;;;4.63;1.77;;;3.00;99.90;;;;;;5038297;28;20490;-72
2021/01/14 01:11:24;;;;;;;7.23;1.87;;;3.10;99.90;;;;;;5035286;28;20936;-73
2021/01/14 01:13:51;;;;;;;8.77;1.43;;;3.20;99.90;;;;;;5037114;28;20423;-73
2021/01/14 01:16:17;;;;;;;4.80;1.53;;;3.20;99.90;;;;;;5036790;28;20823;-73
2021/01/14 01:18:42;;;;;;;5.90;1.90;;;3.20;99.90;;;;;;5036590;28;20402;-73
2021/01/14 01:21:08;;;;;;;4.30;1.43;;;3.20;99.90;;;;;;5036745;28;20512;-73
2021/01/14 01:23:34;;;;;;;5.37;1.50;;;3.20;99.90;;;;;;5036621;28;20186;-72
2021/01/14 01:25:59;;;;;;;6.00;1.40;;;3.20;99.90;;;;;;5036771;28;20192;-74
2021/01/14 01:28:25;;;;;;;5.03;1.40;;;3.20;99.90;;;;;;5035658;28;20577;-72
2021/01/14 01:30:50;;;;;;;4.27;1.53;;;3.30;99.90;;;;;;5037371;28;20642;-71
2021/01/14 01:33:16;;;;;;;5.67;2.00;;;3.40;99.90;;;;;;5036818;28;20684;-71
2021/01/14 01:35:41;;;;;;;6.80;2.17;;;3.30;99.90;;;;;;5036879;28;20271;-72
2021/01/14 01:38:07;;;;;;;1.87;1.47;;;3.40;99.90;;;;;;5036553;28;20171;-72
2021/01/14 01:40:32;;;;;;;8.30;3.47;;;3.40;99.90;;;;;;5036370;28;20267;-72
2021/01/14 01:42:58;;;;;;;4.43;1.90;;;3.30;99.90;;;;;;5036254;28;20194;-72
2021/01/14 01:45:24;;;;;;;8.47;2.60;;;3.20;99.90;;;;;;5035636;28;20190;-73
2021/01/14 01:47:50;;;;;;;5.00;1.73;;;3.20;99.90;;;;;;5035899;28;20290;-73
2021/01/14 01:50:19;;;;;;;3.03;1.70;;;3.20;99.90;;;;;;5036009;28;20454;-73
2021/01/14 01:52:44;;;;;;;5.60;1.80;;;3.30;99.90;;;;;;5037022;28;20483;-72
2021/01/14 01:55:10;;;;;;;6.83;2.03;;;3.30;99.90;;;;;;5067240;28;20419;-73
2021/01/14 01:57:36;;;;;;;1.50;1.13;;;3.40;99.90;;;;;;5035350;28;20211;-73
2021/01/14 02:00:03;;;;;;;4.40;1.20;;;3.40;99.90;;;;;;5035674;28;20452;-73
2021/01/14 02:02:29;;;;;;;9.07;1.70;;;3.40;99.90;;;;;;5035281;28;20176;-73
2021/01/14 02:04:56;;;;;;;4.77;2.03;;;3.40;99.90;;;;;;5035624;28;20422;-73
2021/01/14 02:07:36;;;;;;;4.90;1.83;;;3.30;99.90;;;;;;5034344;28;21020;-72
2021/01/14 02:10:33;;;;;;;3.50;1.73;;;3.20;99.90;;;;;;5035431;28;20445;-72
2021/01/14 02:13:20;;;;;;;2.10;1.40;;;3.20;99.90;;;;;;5033240;28;20413;-73
2021/01/14 02:15:48;;;;;;;7.53;2.00;;;3.30;99.90;;;;;;5034033;28;20438;-73
2021/01/14 02:18:19;;;;;;;5.87;2.17;;;3.20;99.90;;;;;;5034179;28;20410;-73
2021/01/14 02:20:49;;;;;;;3.17;1.40;;;3.20;99.90;;;;;;5035396;28;20491;-72
2021/01/14 02:23:33;;;;;;;8.70;1.90;;;3.10;99.90;;;;;;5034792;28;20438;-72
2021/01/14 02:26:25;;;;;;;6.20;2.17;;;3.00;99.90;;;;;;5035143;28;20434;-72
2021/01/14 02:28:52;;;;;;;3.17;1.83;;;2.90;99.90;;;;;;5035632;28;20931;-73
2021/01/14 02:31:20;;;;;;;4.87;2.07;;;2.90;99.90;;;;;;5034800;28;20973;-73
2021/01/14 02:33:51;;;;;;;3.17;1.47;;;2.80;99.90;;;;;;5034854;28;20543;-73
2021/01/14 02:36:17;;;;;;;6.50;1.60;;;2.80;99.90;;;;;;5035221;28;20793;-72
2021/01/14 02:38:42;;;;;;;6.33;2.13;;;2.80;99.90;;;;;;5035254;28;20413;-73
2021/01/14 02:41:08;;;;;;;4.13;1.47;;;2.80;99.90;;;;;;5035364;28;20704;-72
2021/01/14 02:43:35;;;;;;;4.47;1.67;;;2.80;99.90;;;;;;5034767;28;20191;-72
2021/01/14 02:46:01;;;;;;;3.63;1.50;;;2.80;99.90;;;;;;5033317;28;20191;-72
2021/01/14 02:48:35;;;;;;;6.00;2.60;;;2.90;99.90;;;;;;5034641;28;20463;-72
2021/01/14 02:51:06;;;;;;;5.77;2.90;;;2.80;99.90;;;;;;5035495;28;20433;-72
2021/01/14 02:53:33;;;;;;;2.77;2.30;;;2.80;99.90;;;;;;5034911;28;20429;-72
2021/01/14 02:56:00;;;;;;;4.40;1.67;;;2.90;99.90;;;;;;5067016;28;20433;-72
2021/01/14 02:58:27;;;;;;;4.67;1.90;;;2.90;99.90;;;;;;5034735;28;20425;-72
2021/01/14 03:00:53;;;;;;;3.10;1.60;;;2.90;99.90;;;;;;5035194;28;20413;-71
2021/01/14 03:03:18;;;;;;;4.77;1.87;;;2.90;99.90;;;;;;5034046;28;20418;-73
2021/01/14 03:05:44;;;;;;;4.47;1.83;;;2.80;99.90;;;;;;5066764;28;20196;-72
2021/01/14 03:08:09;;;;;;;5.57;1.70;;;2.80;99.90;;;;;;5035219;28;20199;-72
2021/01/14 03:10:35;;;;;;;4.00;1.90;;;2.70;99.90;;;;;;5034420;28;20186;-72
2021/01/14 03:13:00;;;;;;;2.00;1.57;;;2.70;99.90;;;;;;5034708;28;20166;-71
2021/01/14 03:15:26;;;;;;;3.43;1.63;;;2.70;99.90;;;;;;5034258;28;20217;-73
2021/01/14 03:17:53;;;;;;;5.93;2.50;;;2.70;99.90;;;;;;5034738;28;20514;-72
2021/01/14 03:20:19;;;;;;;7.23;2.43;;;2.80;99.90;;;;;;5034194;28;20167;-72
2021/01/14 03:22:44;;;;;;;2.37;1.63;;;2.80;99.90;;;;;;5034359;28;20889;-72
2021/01/14 03:25:11;;;;;;;3.50;1.80;;;2.90;99.90;;;;;;5033503;28;20551;-72
2021/01/14 03:27:38;;;;;;;4.27;1.63;;;3.00;99.90;;;;;;5034068;28;20222;-72
2021/01/14 03:30:06;;;;;;;5.27;3.10;;;3.00;99.90;;;;;;5033834;28;20402;-72
2021/01/14 03:32:31;;;;;;;4.80;1.80;;;3.10;99.90;;;;;;5034030;28;20456;-73
2021/01/14 03:34:57;;;;;;;5.00;1.50;;;3.10;99.90;;;;;;5032358;28;20943;-73
2021/01/14 03:37:23;;;;;;;7.40;1.70;;;3.10;99.90;;;;;;5034465;28;20266;-72
2021/01/14 03:39:48;;;;;;;3.93;1.53;;;3.20;99.90;;;;;;5034913;28;20229;-72
2021/01/14 03:42:19;;;;;;;5.53;1.93;;;3.20;99.90;;;;;;5034656;28;20413;-72
2021/01/14 03:44:44;;;;;;;2.87;1.70;;;3.10;99.90;;;;;;5034033;28;20180;-72
2021/01/14 03:47:10;;;;;;;6.80;2.10;;;3.20;99.90;;;;;;5033626;28;20457;-72
2021/01/14 03:49:36;;;;;;;5.67;2.17;;;3.20;99.90;;;;;;5066383;28;20168;-71
2021/01/14 03:52:02;;;;;;;5.73;1.97;;;3.20;99.90;;;;;;5034875;28;20289;-73
2021/01/14 03:54:27;;;;;;;3.23;1.70;;;3.20;99.90;;;;;;5033764;28;20512;-73
2021/01/14 03:56:53;;;;;;;5.67;1.90;;;3.30;99.90;;;;;;5032401;28;20200;-73
2021/01/14 03:59:18;;;;;;;3.50;1.60;;;3.20;99.90;;;;;;5033722;28;20203;-73
2021/01/14 04:01:44;;;;;;;6.17;1.60;;;3.20;99.90;;;;;;5033318;28;20213;-72
2021/01/14 04:04:10;;;;;;;3.17;2.67;;;3.30;99.90;;;;;;5034232;28;20555;-72
2021/01/14 04:06:36;;;;;;;5.60;1.40;;;3.30;99.90;;;;;;5034512;28;20225;-72
2021/01/14 04:09:04;;;;;;;3.90;1.97;;;3.40;99.90;;;;;;5033690;28;20214;-73
2021/01/14 04:11:29;;;;;;;5.40;1.40;;;3.40;99.90;;;;;;5046473;28;20406;-73
2021/01/14 04:13:56;;;;;;;9.63;1.83;;;3.50;99.90;;;;;;5049299;28;20413;-73
2021/01/14 04:16:21;;;;;;;7.63;2.47;;;3.50;99.90;;;;;;5034194;28;20548;-73
2021/01/14 04:18:47;;;;;;;6.50;1.97;;;3.50;99.90;;;;;;5048421;28;20410;-73
2021/01/14 04:21:16;;;;;;;6.60;2.00;;;3.60;99.90;;;;;;5049523;28;20507;-73
2021/01/14 04:23:45;;;;;;;6.50;1.97;;;3.60;99.90;;;;;;5049563;28;20182;-73
2021/01/14 04:26:11;;;;;;;5.43;2.80;;;3.60;99.90;;;;;;5050294;28;20437;-73
2021/01/14 04:28:37;;;;;;;8.80;2.00;;;3.60;99.90;;;;;;5033283;28;20866;-73
2021/01/14 04:31:03;;;;;;;3.63;1.80;;;3.60;99.90;;;;;;5033599;28;20414;-73
2021/01/14 04:33:29;;;;;;;3.50;1.83;;;3.60;99.90;;;;;;5033135;28;20770;-73
2021/01/14 04:35:59;;;;;;;8.43;1.97;;;3.60;99.90;;;;;;5031704;28;20452;-73
2021/01/14 04:38:27;;;;;;;5.40;1.87;;;3.60;99.90;;;;;;5033299;28;20186;-73
2021/01/14 04:40:56;;;;;;;1.60;1.47;;;3.60;99.90;;;;;;5036363;28;20822;-73
2021/01/14 04:43:24;;;;;;;4.03;1.50;;;3.60;99.90;;;;;;5037422;28;20426;-73
2021/01/14 04:45:54;;;;;;;5.23;2.37;;;3.70;99.90;;;;;;5037040;28;20514;-73
2021/01/14 04:48:21;;;;;;;4.83;2.03;;;3.70;99.90;;;;;;5037016;28;20512;-72
2021/01/14 04:50:48;;;;;;;4.07;2.10;;;3.60;99.90;;;;;;5038105;28;20440;-72
2021/01/14 04:53:17;;;;;;;3.77;2.47;;;3.60;99.90;;;;;;5037438;28;20512;-72
2021/01/14 04:55:45;;;;;;;4.17;2.17;;;3.60;99.90;;;;;;5037110;28;20439;-73
2021/01/14 04:58:16;;;;;;;8.60;2.23;;;3.60;99.90;;;;;;5036700;28;20443;-73
2021/01/14 05:00:50;;;;;;;4.00;2.00;;;3.60;99.90;;;;;;5037139;28;20792;-73
2021/01/14 05:03:22;;;;;;;6.63;1.70;;;3.60;99.90;;;;;;5037153;28;20417;-73
2021/01/14 05:05:49;;;;;;;4.40;1.87;;;3.60;99.90;;;;;;5036637;28;20427;-72
2021/01/14 05:08:16;;;;;;;5.20;2.50;;;3.60;99.90;;;;;;5036827;28;20450;-72
2021/01/14 05:10:44;;;;;;;6.03;1.80;;;3.70;99.90;;;;;;5036693;28;20500;-72
2021/01/14 05:13:10;;;;;;;1.90;1.40;;;3.70;99.90;;;;;;5036589;28;20410;-72
2021/01/14 05:15:38;;;;;;;6.03;1.60;;;3.70;99.90;;;;;;5036465;28;20929;-72
2021/01/14 05:18:03;;;;;;;4.53;1.63;;;3.60;99.90;;;;;;5068820;28;20413;-72
2021/01/14 05:20:29;;;;;;;5.30;1.77;;;3.60;99.90;;;;;;5036431;28;20943;-73
2021/01/14 05:23:00;;;;;;;4.50;1.67;;;3.60;99.90;;;;;;5036589;28;20191;-73
2021/01/14 05:25:26;;;;;;;5.17;2.17;;;3.60;99.90;;;;;;5036016;28;20580;-73
2021/01/14 05:27:52;;;;;;;4.73;2.20;;;3.60;99.90;;;;;;5034806;28;20463;-72
2021/01/14 05:30:18;;;;;;;5.90;2.17;;;3.60;99.90;;;;;;5035819;28;20734;-72
2021/01/14 05:32:45;;;;;;;5.33;1.90;;;3.50;99.90;;;;;;5035688;28;20184;-72
2021/01/14 05:35:28;;;;;;;6.07;2.70;;;3.50;99.90;;;;;;5035659;28;20425;-72
2021/01/14 05:38:00;;;;;;;5.90;1.60;;;3.50;99.90;;;;;;5036227;28;20502;-72
2021/01/14 05:40:28;;;;;;;5.03;3.63;;;3.50;99.90;;;;;;5035415;28;20414;-74
2021/01/14 05:43:06;;;;;;;6.40;2.30;;;3.50;99.90;;;;;;5035629;28;20418;-72
2021/01/14 05:45:35;;;;;;;3.33;1.57;;;3.40;99.90;;;;;;5036123;28;20437;-72
2021/01/14 05:48:07;;;;;;;7.13;2.90;;;3.50;99.90;;;;;;5035869;28;20449;-72
2021/01/14 05:50:44;;;;;;;8.07;2.40;;;3.40;99.90;;;;;;5035459;28;20414;-72
2021/01/14 05:53:15;;;;;;;2.47;1.73;;;3.50;99.90;;;;;;5034999;28;20416;-72
2021/01/14 05:55:50;;;;;;;5.33;1.87;;;3.50;99.90;;;;;;5035221;28;20932;-73
2021/01/14 05:58:19;;;;;;;5.60;2.57;;;3.50;99.90;;;;;;5036293;28;20760;-73
2021/01/14 06:00:47;;;;;;;6.93;2.23;;;3.40;99.90;;;;;;5028980;28;20459;-73
2021/01/14 06:03:38;;;;;;;5.90;1.93;;;3.40;99.90;;;;;;5030188;28;20452;-73
2021/01/14 06:06:14;;;;;;;3.77;2.60;;;3.40;99.90;;;;;;5030640;28;20971;-73
2021/01/14 06:08:40;;;;;;;8.57;2.90;;;3.30;99.90;;;;;;5035057;28;20456;-73
2021/01/14 06:11:18;;;;;;;4.00;1.90;;;3.30;99.90;;;;;;5034494;28;20929;-73
2021/01/14 06:13:43;;;;;;;2.77;2.40;;;3.40;99.90;;;;;;5034555;28;20173;-73
2021/01/14 06:16:09;;;;;;;5.00;2.00;;;3.30;99.90;;;;;;5034746;28;20439;-72
2021/01/14 06:18:34;;;;;;;3.93;2.33;;;3.40;99.90;;;;;;5034208;28;20206;-73
2021/01/14 06:21:00;;;;;;;2.90;2.03;;;3.40;99.90;;;;;;5035006;28;20569;-73
2021/01/14 06:23:26;;;;;;;3.27;2.10;;;3.40;99.90;;;;;;5035197;28;20543;-73
2021/01/14 06:25:55;;;;;;;4.07;2.50;;;3.20;99.90;;;;;;5034145;28;20242;-73
2021/01/14 06:28:31;;;;;;;8.57;1.80;;;3.10;99.90;;;;;;5034303;28;20477;-72
2021/01/14 06:31:04;;;;;;;3.27;2.30;;;3.00;99.90;;;;;;5034217;28;21046;-73
2021/01/14 06:33:30;;;;;;;6.70;2.27;;;3.00;99.90;;;;;;5034462;28;20496;-72
2021/01/14 06:36:20;;;;;;;3.30;1.73;;;3.00;99.90;;;;;;5034451;28;20975;-73
2021/01/14 06:38:47;;;;;;;2.70;2.13;;;3.10;99.90;;;;;;5032542;28;20967;-73
2021/01/14 06:41:21;;;;;;;6.03;2.40;;;2.90;99.90;;;;;;5034001;28;20791;-73
2021/01/14 06:43:48;;;;;;;9.60;1.80;;;3.00;99.90;;;;;;5033002;28;20505;-73
2021/01/14 06:46:21;;;;;;;5.80;2.00;;;3.00;99.90;;;;;;5031282;28;21051;-73
2021/01/14 06:49:02;;;;;;;7.20;3.00;;;3.00;99.90;;;;;;5033816;28;20519;-73
2021/01/14 06:51:52;;;;;;;10.03;2.57;;;2.90;99.90;;;;;;5029664;28;20945;-73
2021/01/14 06:54:18;;;;;;;3.67;2.37;;;2.90;99.90;;;;;;5031763;28;20429;-73
2021/01/14 06:57:14;;;;;;;4.17;2.13;;;2.90;99.90;;;;;;5034102;28;20437;-72
2021/01/14 06:59:39;;;;;;;2.40;1.90;;;3.00;99.90;;;;;;5035213;28;20754;-73
2021/01/14 07:02:05;;;;;;;6.37;2.53;;;3.10;99.90;;;;;;5030894;28;20421;-73
2021/01/14 07:04:42;;;;;;;5.70;2.63;;;3.10;99.90;;;;;;5029098;28;20203;-73
2021/01/14 07:07:26;;;;;;;5.37;2.00;;;3.10;99.90;;;;;;5033661;28;20187;-76
2021/01/14 07:10:05;;;;;;;8.53;2.20;;;3.00;99.90;;;;;;5035456;28;20464;-73
2021/01/14 07:12:39;;;;;;;4.90;1.87;;;3.00;99.90;;;;;;5036204;28;20499;-74
2021/01/14 07:15:17;;;;;;;4.10;2.20;;;3.10;99.90;;;;;;5035738;28;20759;-73
2021/01/14 07:17:44;;;;;;;6.90;3.37;;;3.10;99.90;;;;;;5035984;28;20417;-72
2021/01/14 07:20:15;;;;;;;6.07;3.50;;;3.20;99.90;;;;;;5034408;28;20407;-74
2021/01/14 07:22:56;;;;;;;3.90;2.70;;;3.20;99.90;;;;;;5040847;28;20448;-74
2021/01/14 07:25:24;;;;;;;6.10;2.33;;;3.20;99.90;;;;;;5033875;28;20924;-73
2021/01/14 07:27:49;;;;;;;4.10;2.40;;;3.20;99.90;;;;;;5033337;28;20473;-74
2021/01/14 07:30:19;;;;;;;4.00;2.03;;;3.00;99.90;;;;;;5033658;28;20457;-74
2021/01/14 07:33:05;;;;;;;7.70;2.37;;;3.10;99.90;;;;;;5033926;28;20508;-72
2021/01/14 07:35:42;;;;;;;4.23;2.00;;;3.10;99.90;;;;;;5143205;27;20534;-72
2021/01/14 07:38:11;;;;;;;5.00;2.23;;;3.20;99.90;;;;;;5138786;27;20395;-73
2021/01/14 07:40:38;;;;;;;4.40;2.53;;;3.10;99.90;;;;;;5151161;27;20397;-73
2021/01/14 07:43:08;;;;;;;6.53;1.90;;;3.10;99.90;;;;;;5136391;27;20917;-73
2021/01/14 07:45:34;;;;;;;5.73;2.10;;;3.20;99.90;;;;;;5131122;27;20449;-73
2021/01/14 07:48:20;;;;;;;3.90;2.30;;;3.10;99.90;;;;;;5148216;27;20412;-73
2021/01/14 07:50:55;;;;;;;6.03;2.00;;;3.10;99.90;;;;;;5118288;27;20415;-73
2021/01/14 07:53:22;;;;;;;10.53;2.40;;;3.00;99.90;;;;;;5151073;27;20436;-73
2021/01/14 07:55:48;;;;;;;4.27;2.30;;;3.00;99.90;;;;;;5149742;27;20539;-74
2021/01/14 07:58:22;;;;;;;3.07;2.10;;;3.00;99.90;;;;;;5165883;27;20413;-73
2021/01/14 08:01:08;;;;;;;3.27;2.10;;;3.00;99.90;;;;;;5122568;27;20642;-74
2021/01/14 08:03:41;;;;;;;8.27;2.30;;;3.10;99.90;;;;;;5138782;27;20423;-72
2021/01/14 08:06:29;;;;;;;5.83;2.87;;;3.10;99.90;;;;;;5143919;27;20459;-73
2021/01/14 08:09:10;;;;;;;10.37;2.80;;;3.20;99.90;;;;;;5125406;27;20427;-73
2021/01/14 08:11:45;;;;;;;6.37;2.87;;;3.20;99.90;;;;;;5141114;27;20417;-73
2021/01/14 08:14:16;;;;;;;5.00;2.93;;;3.20;99.90;;;;;;5146285;27;20457;-73
2021/01/14 08:16:55;;;;;;;6.63;3.30;;;3.30;99.90;;;;;;5119948;27;21015;-74
2021/01/14 08:19:30;;;;;;;5.07;3.30;;;3.30;99.90;;;;;;5143203;27;20413;-74
2021/01/14 08:21:59;;;;;;;10.50;2.53;;;3.30;99.90;;;;;;5130374;27;20445;-74
2021/01/14 08:24:40;;;;;;;3.33;2.20;;;3.30;99.90;;;;;;5148272;27;20546;-74
2021/01/14 08:27:11;;;;;;;3.70;2.50;;;3.30;99.90;;;;;;5129132;27;20432;-74
2021/01/14 08:29:46;;;;;;;4.27;3.20;;;3.20;99.90;;;;;;5140485;27;20923;-72
2021/01/14 08:32:29;;;;;;;5.70;2.50;;;3.20;99.90;;;;;;5146337;27;20416;-73
2021/01/14 08:34:56;;;;;;;2.70;2.50;;;3.10;99.90;;;;;;5120667;27;20819;-73
2021/01/14 08:37:49;;;;;;;11.83;2.90;;;3.10;99.90;;;;;;5143662;27;20444;-74
2021/01/14 08:40:18;;;;;;;5.30;2.47;;;3.10;99.90;;;;;;5130645;27;20436;-74
2021/01/14 08:42:46;;;;;;;8.47;2.90;;;3.10;99.90;;;;;;5146578;27;20478;-74
2021/01/14 08:45:19;;;;;;;7.80;2.80;;;3.00;99.90;;;;;;5130809;27;20834;-73
2021/01/14 08:47:59;;;;;;;6.00;3.03;;;3.00;99.90;;;;;;5108449;27;20422;-73
2021/01/14 08:50:41;;;;;;;6.53;2.67;;;2.80;99.90;;;;;;5130606;27;20416;-73
2021/01/14 08:53:29;;;;;;;5.73;2.77;;;2.90;99.90;;;;;;5122894;27;20909;-73
2021/01/14 08:56:03;;;;;;;8.27;3.17;;;3.00;99.90;;;;;;5119869;27;20494;-73
2021/01/14 08:58:39;;;;;;;4.80;2.93;;;3.00;99.90;;;;;;5111307;28;20408;-74
2021/01/14 09:01:07;;;;;;;5.33;3.53;;;3.10;99.90;;;;;;5122253;27;20829;-73
2021/01/14 09:03:34;;;;;;;5.20;3.60;;;3.00;99.90;;;;;;5123665;27;20401;-74
2021/01/14 09:05:59;;;;;;;6.80;4.40;;;3.10;99.90;;;;;;5133068;27;20432;-74
2021/01/14 09:08:25;;;;;;;7.03;4.73;;;3.20;99.90;;;;;;5113465;27;20724;-74
2021/01/14 09:10:55;;;;;;;6.63;4.03;;;3.20;99.90;;;;;;5133989;27;20211;-74
2021/01/14 09:13:29;;;;;;;6.53;4.47;;;3.20;99.90;;;;;;5117505;28;20191;-74
2021/01/14 09:15:57;;;;;;;6.13;4.37;;;3.00;99.90;;;;;;5129247;27;20420;-73
2021/01/14 09:18:52;;;;;;;6.17;5.07;;;2.70;99.90;;;;;;5119625;27;20430;-73
2021/01/14 09:21:17;;;;;;;4.50;4.10;;;2.60;99.90;;;;;;5078868;28;20419;-73
2021/01/14 09:23:43;;;;;;;7.40;4.63;;;2.70;99.90;;;;;;5088198;28;20562;-74
2021/01/14 09:26:14;;;;;;;4.87;4.40;;;2.80;99.90;;;;;;5093388;28;20212;-73
2021/01/14 09:28:46;;;;;;;8.40;4.83;;;2.90;99.90;;;;;;5069936;28;20252;-74
2021/01/14 09:31:12;;;;;;;4.70;4.20;;;3.00;99.90;;;;;;5091456;28;20404;-74
2021/01/14 09:33:39;;;;;;;6.43;4.20;;;3.20;99.90;;;;;;5080008;28;21025;-73
2021/01/14 09:36:09;;;;;;;4.13;3.70;;;3.30;99.90;;;;;;5084420;28;20522;-73
2021/01/14 09:38:40;;;;;;;5.10;4.00;;;3.40;99.90;;;;;;5091708;28;20429;-72
2021/01/14 09:41:06;;;;;;;8.43;4.57;;;3.50;99.90;;;;;;5090796;28;20434;-72
2021/01/14 09:43:33;;;;;;;8.77;4.20;;;3.40;99.90;;;;;;5074389;28;20415;-73
2021/01/14 09:45:59;;;;;;;5.93;4.27;;;3.40;99.90;;;;;;5088218;28;20430;-72
2021/01/14 09:48:25;;;;;;;7.00;4.57;;;3.40;99.90;;;;;;5084112;28;20783;-74
2021/01/14 09:50:51;;;;;;;7.03;4.10;;;3.50;99.90;;;;;;5066635;28;20954;-73
2021/01/14 09:53:17;;;;;;;7.37;4.17;;;3.50;99.80;;;;;;5088497;28;20763;-74
2021/01/14 09:55:43;;;;;;;4.70;3.53;;;3.40;99.80;;;;;;5093507;28;20643;-74
2021/01/14 09:58:18;;;;;;;5.27;3.57;;;3.40;99.90;;;;;;5120004;27;20947;-73
2021/01/14 10:00:46;;;;;;;7.30;4.37;;;3.60;99.90;;;;;;5112872;27;20519;-73
2021/01/14 10:03:15;;;;;;;9.53;4.87;;;3.60;99.90;;;;;;5120070;27;20453;-75
2021/01/14 10:05:41;;;;;;;6.83;4.20;;;3.70;99.90;;;;;;5132178;27;20824;-74
2021/01/14 10:08:13;;;;;;;5.37;3.63;;;3.80;99.90;;;;;;5124167;27;20403;-75
2021/01/14 10:10:39;;;;;;;5.20;4.50;;;3.80;99.90;;;;;;5114595;27;20451;-72
2021/01/14 10:13:04;;;;;;;5.53;4.30;;;3.70;99.60;;;;;;5131675;27;20441;-73
2021/01/14 10:15:30;;;;;;;5.20;3.53;;;3.70;99.80;;;;;;5112006;27;20486;-73
2021/01/14 10:17:56;;;;;;;5.63;3.83;;;3.70;99.90;;;;;;5126111;27;20203;-75
2021/01/14 10:20:21;;;;;;;3.83;3.27;;;3.70;99.90;;;;;;5116532;27;20169;-76
2021/01/14 10:22:49;;;;;;;3.80;3.50;;;3.70;99.80;;;;;;5112229;28;20176;-74
2021/01/14 10:25:15;;;;;;;5.87;3.40;;;3.70;99.60;;;;;;5112756;27;20172;-75
2021/01/14 10:27:41;;;;;;;2.90;2.70;;;3.70;99.30;;;;;;5114882;28;20499;-76
2021/01/14 10:30:21;;;;;;;4.90;3.67;;;3.70;99.20;;;;;;5121791;27;20587;-75
2021/01/14 10:32:48;;;;;;;3.67;3.37;;;3.80;99.30;;;;;;5107868;27;20167;-75
2021/01/14 10:35:29;;;;;;;6.67;3.90;;;3.90;99.40;;;;;;5114130;27;20506;-75
2021/01/14 10:38:06;;;;;;;3.70;3.40;;;3.90;99.30;;;;;;5124070;27;20403;-75
2021/01/14 10:40:43;;;;;;;6.13;4.13;;;4.10;99.20;;;;;;5119770;27;20900;-73
2021/01/14 10:43:10;;;;;;;3.63;3.27;;;4.20;99.10;;;;;;5124283;27;20522;-75
2021/01/14 10:45:40;;;;;;;3.63;3.33;;;4.20;98.80;;;;;;5134866;27;20452;-74
2021/01/14 10:48:13;;;;;;;4.60;3.30;;;4.20;98.30;;;;;;5120170;27;20546;-74
2021/01/14 10:50:44;;;;;;;6.57;3.10;;;4.20;98.50;;;;;;5114074;27;20442;-75
2021/01/14 10:53:10;;;;;;;4.37;3.23;;;4.30;98.60;;;;;;5109091;28;20455;-75
2021/01/14 10:55:36;;;;;;;5.43;3.33;;;4.30;98.20;;;;;;5115146;27;20480;-75
2021/01/14 10:58:06;;;;;;;7.33;3.50;;;4.30;98.30;;;;;;5122356;27;20507;-75
2021/01/14 11:00:38;;;;;;;4.53;3.10;;;4.40;98.40;;;;;;5126415;27;20502;-75
2021/01/14 11:03:10;;;;;;;3.90;3.50;;;4.40;98.10;;;;;;5133742;27;20421;-74
2021/01/14 11:05:40;;;;;;;4.50;3.30;;;4.20;98.10;;;;;;5132109;27;20436;-76
2021/01/14 11:08:07;;;;;;;4.10;3.27;;;4.40;98.50;;;;;;5132788;27;20435;-75
2021/01/14 11:10:33;;;;;;;4.20;3.27;;;4.50;98.50;;;;;;5114257;27;20424;-76
2021/01/14 11:13:09;;;;;;;4.50;3.43;;;4.50;98.10;;;;;;5116940;27;20469;-76
2021/01/14 11:15:35;;;;;;;5.27;2.90;;;4.60;98.20;;;;;;5114554;28;20227;-76
2021/01/14 11:18:03;;;;;;;2.83;2.43;;;4.70;98.10;;;;;;5117567;27;20927;-76
2021/01/14 11:20:29;;;;;;;6.50;3.80;;;4.70;98.00;;;;;;5121877;27;20437;-75
2021/01/14 11:22:54;;;;;;;3.27;2.97;;;4.70;97.90;;;;;;5113846;28;20412;-75
2021/01/14 11:25:20;;;;;;;7.20;3.70;;;4.70;98.00;;;;;;5132819;27;20408;-75
2021/01/14 11:27:46;;;;;;;3.30;3.00;;;4.70;97.70;;;;;;5134863;27;20187;-76
2021/01/14 11:30:12;;;;;;;4.90;4.07;;;4.70;97.90;;;;;;5137059;27;20827;-75
2021/01/14 11:32:38;;;;;;;5.80;3.80;;;4.70;97.70;;;;;;5116109;28;20186;-75
2021/01/14 11:35:04;;;;;;;6.83;3.83;;;4.60;97.80;;;;;;5133199;27;20475;-76
2021/01/14 11:37:29;;;;;;;4.00;2.80;;;4.70;97.90;;;;;;5140416;27;20207;-76
2021/01/14 11:39:55;;;;;;;3.90;2.43;;;4.70;97.80;;;;;;5129989;27;20455;-77
2021/01/14 11:42:20;;;;;;;3.93;2.67;;;4.60;97.70;;;;;;5116351;28;20172;-76
2021/01/14 11:44:46;;;;;;;3.10;2.80;;;4.60;97.60;;;;;;5112631;28;20259;-75
2021/01/14 11:47:11;;;;;;;5.50;3.00;;;4.60;97.60;;;;;;5120370;27;20213;-75
2021/01/14 11:49:37;;;;;;;5.70;3.13;;;4.60;97.70;;;;;;5121961;27;20652;-75
2021/01/14 11:52:02;;;;;;;5.03;3.33;;;4.50;97.70;;;;;;5121815;27;20179;-75
2021/01/14 11:54:28;;;;;;;2.97;2.73;;;4.60;97.90;;;;;;5115842;28;20722;-74
2021/01/14 11:56:54;;;;;;;4.70;2.53;;;4.70;97.80;;;;;;5121449;27;20269;-76
2021/01/14 11:59:20;;;;;;;3.23;2.33;;;4.70;97.50;;;;;;5114178;28;20553;-77
2021/01/14 12:01:45;;;;;;;3.57;2.83;;;4.70;97.50;;;;;;5100500;28;20423;-76
2021/01/14 12:04:11;;;;;;;2.77;2.53;;;4.60;97.10;;;;;;5125061;27;20206;-77
2021/01/14 12:06:36;;;;;;;3.10;2.80;;;4.40;97.20;;;;;;5125903;27;20208;-75
2021/01/14 12:09:02;;;;;;;3.20;2.70;;;4.20;97.60;;;;;;5120228;28;20570;-76
2021/01/14 12:11:28;;;;;;;4.87;2.30;;;4.20;98.00;;;;;;5125055;27;20180;-75
2021/01/14 12:13:54;;;;;;;4.90;3.20;;;4.30;98.10;;;;;;5134032;27;20202;-76
2021/01/14 12:16:20;;;;;;;3.30;2.90;;;4.30;98.10;;;;;;5119597;28;20210;-75
2021/01/14 12:18:45;;;;;;;3.40;2.97;;;4.20;98.10;;;;;;5129986;28;20526;-75
2021/01/14 12:21:15;;;;;;;6.23;2.90;;;4.00;98.20;;;;;;5114482;27;20193;-76
2021/01/14 12:23:47;;;;;;;3.23;2.93;;;4.00;98.50;;;;;;5099206;27;20181;-76
2021/01/14 12:26:13;;;;;;;3.37;3.00;;;4.10;98.70;;;;;;5138451;27;20429;-76
2021/01/14 12:28:38;;;;;;;3.10;2.73;;;4.10;98.80;;;;;;5125405;27;20414;-76
2021/01/14 12:31:04;;;;;;;3.30;3.00;;;4.20;98.80;;;;;;5116987;28;20829;-75
2021/01/14 12:33:30;;;;;;;4.57;3.37;;;4.30;99.10;;;;;;5119655;27;20526;-75
2021/01/14 12:35:55;;;;;;;9.50;3.47;;;4.30;98.40;;;;;;5133894;27;20471;-77
2021/01/14 12:38:21;;;;;;;4.10;2.90;;;4.30;98.50;;;;;;5117230;28;20176;-76
2021/01/14 12:40:47;;;;;;;3.30;3.00;;;4.30;98.50;;;;;;5120043;27;20167;-75
2021/01/14 12:43:12;;;;;;;5.43;3.00;;;4.30;98.40;;;;;;5123153;27;20189;-75
2021/01/14 12:45:37;;;;;;;4.07;3.67;;;4.30;98.40;;;;;;5132221;27;20193;-76
2021/01/14 12:48:03;;;;;;;4.37;3.00;;;4.20;98.50;;;;;;5137094;27;20173;-75
2021/01/14 12:50:29;;;;;;;4.93;3.17;;;4.30;98.70;;;;;;5139169;27;20590;-74
2021/01/14 12:52:54;;;;;;;4.33;3.23;;;4.30;98.70;;;;;;5110205;27;20190;-73
2021/01/14 12:55:20;;;;;;;3.60;3.20;;;4.40;98.70;;;;;;5116931;28;20592;-74
2021/01/14 12:57:45;;;;;;;5.33;3.03;;;4.40;98.40;;;;;;5117265;27;20172;-73
2021/01/14 13:00:11;;;;;;;3.03;2.83;;;4.50;98.40;;;;;;5117008;28;20175;-73
2021/01/14 13:02:37;;;;;;;5.73;3.00;;;4.50;98.20;;;;;;5115057;28;20218;-75
2021/01/14 13:05:03;;;;;;;5.37;3.00;;;4.50;98.20;;;;;;5118611;28;20412;-73
2021/01/14 13:07:28;;;;;;;4.03;3.10;;;4.50;98.10;;;;;;5115326;27;20213;-74
2021/01/14 13:09:54;;;;;;;6.90;3.40;;;4.50;98.10;;;;;;5123629;27;20408;-74